sensor_id;sensor_type;location;lat;lon;timestamp;pressure;altitude;pressure_sealevel;temperature;humidity
18813;BME280;9534;51.140;6.296;2023-03-01T00:01:46;101900.19;;;-0.36;100.00
18813;BME280;9534;51.140;6.296;2023-03-01T00:05:49;101900.19;;;-0.36;100.00
18813;BME280;9534;51.140;6.296;2023-03-01T00:09:53;101909.97;;;-0.35;100.00
18813;BME280;9534;51.140;6.296;2023-03-01T00:13:59;101916.53;;;-0.39;100.00
18813;BME280;9534;51.140;6.296;2023-03-01T00:18:03;101920.19;;;-0.40;100.00
18813;BME280;9534;51.140;6.296;2023-03-01T00:22:07;101914.38;;;-0.34;100.00
18813;BME280;9534;51.140;6.296;2023-03-01T00:26:12;101907.19;;;-0.46;100.00
18813;BME280;9534;51.140;6.296;2023-03-01T00:30:18;101908.59;;;-0.53;100.00
18813;BME280;9534;51.140;6.296;2023-03-01T00:34:21;101910.09;;;-0.49;100.00
18813;BME280;9534;51.140;6.296;2023-03-01T00:38:24;101902.59;;;-0.56;100.00
18813;BME280;9534;51.140;6.296;2023-03-01T00:42:27;101908.91;;;-0.70;100.00
18813;BME280;9534;51.140;6.296;2023-03-01T00:46:32;101903.34;;;-0.67;100.00
18813;BME280;9534;51.140;6.296;2023-03-01T00:50:36;101898.09;;;-0.81;100.00
18813;BME280;9534;51.140;6.296;2023-03-01T00:54:39;101885.19;;;-0.88;100.00
18813;BME280;9534;51.140;6.296;2023-03-01T00:58:42;101887.34;;;-0.81;100.00
18813;BME280;9534;51.140;6.296;2023-03-01T01:02:47;101888.75;;;-0.88;100.00
18813;BME280;9534;51.140;6.296;2023-03-01T01:06:50;101893.56;;;-0.93;100.00
18813;BME280;9534;51.140;6.296;2023-03-01T01:10:53;101888.75;;;-0.88;100.00
18813;BME280;9534;51.140;6.296;2023-03-01T01:14:57;101884.66;;;-1.06;100.00
18813;BME280;9534;51.140;6.296;2023-03-01T01:19:02;101883.34;;;-1.25;100.00
18813;BME280;9534;51.140;6.296;2023-03-01T01:23:05;101889.44;;;-1.35;100.00
18813;BME280;9534;51.140;6.296;2023-03-01T01:27:09;101879.09;;;-1.41;100.00
18813;BME280;9534;51.140;6.296;2023-03-01T01:31:13;101868.16;;;-1.38;100.00
18813;BME280;9534;51.140;6.296;2023-03-01T01:35:18;101861.50;;;-1.45;100.00
18813;BME280;9534;51.140;6.296;2023-03-01T01:39:22;101856.94;;;-1.57;100.00
18813;BME280;9534;51.140;6.296;2023-03-01T01:43:26;101853.50;;;-1.59;100.00
18813;BME280;9534;51.140;6.296;2023-03-01T01:47:30;101851.81;;;-1.60;100.00
18813;BME280;9534;51.140;6.296;2023-03-01T01:51:38;101847.84;;;-1.55;100.00
18813;BME280;9534;51.140;6.296;2023-03-01T01:55:45;101836.56;;;-1.60;100.00
18813;BME280;9534;51.140;6.296;2023-03-01T01:59:51;101833.03;;;-1.60;100.00
18813;BME280;9534;51.140;6.296;2023-03-01T02:03:55;101836.75;;;-1.75;100.00
18813;BME280;9534;51.140;6.296;2023-03-01T02:08:00;101828.78;;;-1.77;100.00
18813;BME280;9534;51.140;6.296;2023-03-01T02:12:04;101817.91;;;-1.88;100.00
18813;BME280;9534;51.140;6.296;2023-03-01T02:16:10;101820.44;;;-1.72;100.00
18813;BME280;9534;51.140;6.296;2023-03-01T02:20:19;101818.47;;;-1.83;100.00
18813;BME280;9534;51.140;6.296;2023-03-01T02:24:34;101818.94;;;-1.76;100.00
18813;BME280;9534;51.140;6.296;2023-03-01T02:28:40;101821.41;;;-1.73;100.00
18813;BME280;9534;51.140;6.296;2023-03-01T02:32:46;101822.31;;;-1.60;100.00
18813;BME280;9534;51.140;6.296;2023-03-01T02:36:54;101819.91;;;-1.65;100.00
18813;BME280;9534;51.140;6.296;2023-03-01T02:40:58;101834.22;;;-1.64;100.00
18813;BME280;9534;51.140;6.296;2023-03-01T02:45:05;101823.47;;;-1.64;100.00
18813;BME280;9534;51.140;6.296;2023-03-01T02:49:18;101828.63;;;-1.61;100.00
18813;BME280;9534;51.140;6.296;2023-03-01T02:53:24;101835.72;;;-1.60;100.00
18813;BME280;9534;51.140;6.296;2023-03-01T02:57:32;101831.75;;;-1.55;100.00
18813;BME280;9534;51.140;6.296;2023-03-01T03:01:37;101829.59;;;-1.62;100.00
18813;BME280;9534;51.140;6.296;2023-03-01T03:05:43;101825.72;;;-1.58;100.00
18813;BME280;9534;51.140;6.296;2023-03-01T03:09:46;101815.94;;;-1.72;100.00
18813;BME280;9534;51.140;6.296;2023-03-01T03:13:49;101820.88;;;-1.78;100.00
18813;BME280;9534;51.140;6.296;2023-03-01T03:17:56;101800.16;;;-1.76;100.00
18813;BME280;9534;51.140;6.296;2023-03-01T03:21:59;101813.16;;;-1.70;100.00
18813;BME280;9534;51.140;6.296;2023-03-01T03:26:04;101803.81;;;-1.77;100.00
18813;BME280;9534;51.140;6.296;2023-03-01T03:30:09;101808.63;;;-1.82;100.00
18813;BME280;9534;51.140;6.296;2023-03-01T03:34:15;101810.63;;;-1.86;100.00
18813;BME280;9534;51.140;6.296;2023-03-01T03:38:20;101808.06;;;-1.87;100.00
18813;BME280;9534;51.140;6.296;2023-03-01T03:42:23;101814.25;;;-1.99;100.00
18813;BME280;9534;51.140;6.296;2023-03-01T03:46:27;101803.72;;;-2.02;100.00
18813;BME280;9534;51.140;6.296;2023-03-01T03:50:32;101808.34;;;-2.04;100.00
18813;BME280;9534;51.140;6.296;2023-03-01T03:54:35;101814.25;;;-1.99;100.00
18813;BME280;9534;51.140;6.296;2023-03-01T03:58:38;101803.00;;;-1.92;100.00
18813;BME280;9534;51.140;6.296;2023-03-01T04:02:42;101800.41;;;-2.06;100.00
18813;BME280;9534;51.140;6.296;2023-03-01T04:06:47;101802.72;;;-2.14;100.00
18813;BME280;9534;51.140;6.296;2023-03-01T04:10:52;101789.91;;;-1.96;100.00
18813;BME280;9534;51.140;6.296;2023-03-01T04:14:55;101789.72;;;-1.93;100.00
18813;BME280;9534;51.140;6.296;2023-03-01T04:18:59;101781.53;;;-2.04;100.00
18813;BME280;9534;51.140;6.296;2023-03-01T04:23:06;101770.44;;;-2.12;100.00
18813;BME280;9534;51.140;6.296;2023-03-01T04:27:17;101768.72;;;-2.13;100.00
18813;BME280;9534;51.140;6.296;2023-03-01T04:31:20;101764.69;;;-2.33;100.00
18813;BME280;9534;51.140;6.296;2023-03-01T04:35:24;101755.59;;;-2.30;100.00
18813;BME280;9534;51.140;6.296;2023-03-01T04:39:29;101758.41;;;-2.19;100.00
18813;BME280;9534;51.140;6.296;2023-03-01T04:43:32;101758.88;;;-2.39;100.00
18813;BME280;9534;51.140;6.296;2023-03-01T04:47:35;101759.50;;;-2.48;100.00
18813;BME280;9534;51.140;6.296;2023-03-01T04:51:40;101757.34;;;-2.43;100.00
18813;BME280;9534;51.140;6.296;2023-03-01T04:55:44;101759.13;;;-2.56;100.00
18813;BME280;9534;51.140;6.296;2023-03-01T04:59:47;101761.81;;;-2.56;100.00
18813;BME280;9534;51.140;6.296;2023-03-01T05:03:51;101771.25;;;-2.50;100.00
18813;BME280;9534;51.140;6.296;2023-03-01T05:07:56;101768.69;;;-2.52;100.00
18813;BME280;9534;51.140;6.296;2023-03-01T05:12:01;101759.94;;;-2.68;100.00
18813;BME280;9534;51.140;6.296;2023-03-01T05:16:05;101762.13;;;-2.74;100.00
18813;BME280;9534;51.140;6.296;2023-03-01T05:20:10;101756.72;;;-2.87;100.00
18813;BME280;9534;51.140;6.296;2023-03-01T05:24:13;101754.66;;;-2.69;100.00
18813;BME280;9534;51.140;6.296;2023-03-01T05:28:18;101751.31;;;-2.59;100.00
18813;BME280;9534;51.140;6.296;2023-03-01T05:32:22;101757.25;;;-2.68;100.00
18813;BME280;9534;51.140;6.296;2023-03-01T05:36:25;101759.34;;;-2.59;100.00
18813;BME280;9534;51.140;6.296;2023-03-01T05:40:29;101750.38;;;-2.72;100.00
18813;BME280;9534;51.140;6.296;2023-03-01T05:44:33;101747.22;;;-2.78;100.00
18813;BME280;9534;51.140;6.296;2023-03-01T05:48:36;101750.97;;;-2.81;100.00
18813;BME280;9534;51.140;6.296;2023-03-01T05:52:40;101751.47;;;-2.88;100.00
18813;BME280;9534;51.140;6.296;2023-03-01T05:56:44;101744.53;;;-2.78;100.00
18813;BME280;9534;51.140;6.296;2023-03-01T06:00:48;101746.38;;;-2.79;100.00
18813;BME280;9534;51.140;6.296;2023-03-01T06:04:54;101747.97;;;-2.76;100.00
18813;BME280;9534;51.140;6.296;2023-03-01T06:08:58;101741.09;;;-2.80;100.00
18813;BME280;9534;51.140;6.296;2023-03-01T06:13:01;101752.31;;;-2.88;100.00
18813;BME280;9534;51.140;6.296;2023-03-01T06:17:06;101751.34;;;-2.73;100.00
18813;BME280;9534;51.140;6.296;2023-03-01T06:21:09;101752.69;;;-2.80;100.00
18813;BME280;9534;51.140;6.296;2023-03-01T06:25:14;101756.50;;;-2.70;100.00
18813;BME280;9534;51.140;6.296;2023-03-01T06:29:17;101746.00;;;-2.87;100.00
18813;BME280;9534;51.140;6.296;2023-03-01T06:33:22;101741.50;;;-2.86;100.00
18813;BME280;9534;51.140;6.296;2023-03-01T06:37:26;101738.53;;;-2.82;100.00
18813;BME280;9534;51.140;6.296;2023-03-01T06:41:29;101736.56;;;-2.92;100.00
18813;BME280;9534;51.140;6.296;2023-03-01T06:45:32;101748.13;;;-2.92;100.00
18813;BME280;9534;51.140;6.296;2023-03-01T06:49:37;101749.63;;;-2.88;100.00
18813;BME280;9534;51.140;6.296;2023-03-01T06:53:40;101746.59;;;-2.96;100.00
18813;BME280;9534;51.140;6.296;2023-03-01T06:57:43;101753.09;;;-2.86;100.00
18813;BME280;9534;51.140;6.296;2023-03-01T07:01:46;101760.91;;;-2.69;100.00
18813;BME280;9534;51.140;6.296;2023-03-01T07:05:53;101759.50;;;-2.48;100.00
18813;BME280;9534;51.140;6.296;2023-03-01T07:09:56;101750.50;;;-2.47;100.00
18813;BME280;9534;51.140;6.296;2023-03-01T07:14:00;101742.91;;;-2.40;100.00
18813;BME280;9534;51.140;6.296;2023-03-01T07:18:03;101750.78;;;-2.25;100.00
18813;BME280;9534;51.140;6.296;2023-03-01T07:22:08;101746.09;;;-2.09;100.00
18813;BME280;9534;51.140;6.296;2023-03-01T07:26:11;101743.56;;;-1.86;100.00
18813;BME280;9534;51.140;6.296;2023-03-01T07:30:15;101738.03;;;-1.70;100.00
18813;BME280;9534;51.140;6.296;2023-03-01T07:34:18;101735.69;;;-1.50;100.00
18813;BME280;9534;51.140;6.296;2023-03-01T07:38:23;101734.63;;;-0.87;100.00
18813;BME280;9534;51.140;6.296;2023-03-01T07:42:26;101718.22;;;-0.35;100.00
18813;BME280;9534;51.140;6.296;2023-03-01T07:46:29;101709.56;;;0.63;100.00
18813;BME280;9534;51.140;6.296;2023-03-01T07:50:33;101689.25;;;0.70;100.00
18813;BME280;9534;51.140;6.296;2023-03-01T07:54:38;101685.53;;;1.04;100.00
18813;BME280;9534;51.140;6.296;2023-03-01T07:58:42;101689.34;;;1.54;100.00
18813;BME280;9534;51.140;6.296;2023-03-01T08:02:45;101700.97;;;0.58;100.00
18813;BME280;9534;51.140;6.296;2023-03-01T08:06:48;101701.34;;;1.61;100.00
18813;BME280;9534;51.140;6.296;2023-03-01T08:10:56;101699.06;;;2.29;100.00
18813;BME280;9534;51.140;6.296;2023-03-01T08:14:59;101704.94;;;1.82;100.00
18813;BME280;9534;51.140;6.296;2023-03-01T08:19:06;101698.91;;;2.10;100.00
18813;BME280;9534;51.140;6.296;2023-03-01T08:23:09;101697.47;;;2.27;100.00
18813;BME280;9534;51.140;6.296;2023-03-01T08:27:14;101686.03;;;2.34;100.00
18813;BME280;9534;51.140;6.296;2023-03-01T08:31:19;101687.28;;;3.20;100.00
18813;BME280;9534;51.140;6.296;2023-03-01T08:35:23;101690.47;;;2.65;100.00
18813;BME280;9534;51.140;6.296;2023-03-01T08:39:26;101692.47;;;2.63;100.00
18813;BME280;9534;51.140;6.296;2023-03-01T08:43:31;101697.50;;;3.16;100.00
18813;BME280;9534;51.140;6.296;2023-03-01T08:47:34;101685.94;;;2.95;100.00
18813;BME280;9534;51.140;6.296;2023-03-01T08:51:37;101689.59;;;3.34;100.00
18813;BME280;9534;51.140;6.296;2023-03-01T08:55:40;101678.25;;;3.59;100.00
18813;BME280;9534;51.140;6.296;2023-03-01T08:59:45;101680.44;;;3.16;100.00
18813;BME280;9534;51.140;6.296;2023-03-01T09:03:49;101678.94;;;3.42;100.00
18813;BME280;9534;51.140;6.296;2023-03-01T09:07:52;101675.41;;;4.07;100.00
18813;BME280;9534;51.140;6.296;2023-03-01T09:11:55;101669.22;;;4.89;100.00
18813;BME280;9534;51.140;6.296;2023-03-01T09:16:01;101674.72;;;4.05;100.00
18813;BME280;9534;51.140;6.296;2023-03-01T09:20:05;101669.56;;;5.13;100.00
18813;BME280;9534;51.140;6.296;2023-03-01T09:24:13;101673.13;;;4.12;100.00
18813;BME280;9534;51.140;6.296;2023-03-01T09:28:17;101664.44;;;5.10;100.00
18813;BME280;9534;51.140;6.296;2023-03-01T09:32:32;101664.69;;;5.34;100.00
18813;BME280;9534;51.140;6.296;2023-03-01T09:36:35;101660.13;;;5.34;100.00
18813;BME280;9534;51.140;6.296;2023-03-01T09:40:42;101665.94;;;5.84;100.00
18813;BME280;9534;51.140;6.296;2023-03-01T09:44:51;101643.81;;;4.90;100.00
18813;BME280;9534;51.140;6.296;2023-03-01T09:49:02;101646.47;;;4.63;100.00
18813;BME280;9534;51.140;6.296;2023-03-01T09:53:13;101645.16;;;5.03;100.00
18813;BME280;9534;51.140;6.296;2023-03-01T09:57:19;101636.13;;;6.09;100.00
18813;BME280;9534;51.140;6.296;2023-03-01T10:01:29;101642.34;;;5.49;100.00
18813;BME280;9534;51.140;6.296;2023-03-01T10:05:55;101633.75;;;6.06;100.00
18813;BME280;9534;51.140;6.296;2023-03-01T10:09:59;101626.78;;;5.42;100.00
18813;BME280;9534;51.140;6.296;2023-03-01T10:14:19;101627.75;;;5.68;100.00
18813;BME280;9534;51.140;6.296;2023-03-01T10:18:28;101628.91;;;6.17;100.00
18813;BME280;9534;51.140;6.296;2023-03-01T10:22:33;101623.25;;;6.11;100.00
18813;BME280;9534;51.140;6.296;2023-03-01T10:26:55;101620.19;;;6.31;100.00
18813;BME280;9534;51.140;6.296;2023-03-01T10:30:59;101623.91;;;6.81;100.00
18813;BME280;9534;51.140;6.296;2023-03-01T10:35:15;101614.47;;;7.09;100.00
18813;BME280;9534;51.140;6.296;2023-03-01T10:39:22;101605.22;;;6.94;100.00
18813;BME280;9534;51.140;6.296;2023-03-01T10:43:26;101595.38;;;6.09;100.00
18813;BME280;9534;51.140;6.296;2023-03-01T10:47:30;101593.69;;;7.00;100.00
18813;BME280;9534;51.140;6.296;2023-03-01T10:51:34;101586.66;;;6.82;100.00
18813;BME280;9534;51.140;6.296;2023-03-01T10:55:40;101578.16;;;6.51;100.00
18813;BME280;9534;51.140;6.296;2023-03-01T10:59:43;101574.97;;;6.89;100.00
18813;BME280;9534;51.140;6.296;2023-03-01T11:04:08;101559.50;;;7.63;100.00
18813;BME280;9534;51.140;6.296;2023-03-01T11:08:13;101552.31;;;8.18;100.00
18813;BME280;9534;51.140;6.296;2023-03-01T11:12:18;101555.03;;;7.38;100.00
18813;BME280;9534;51.140;6.296;2023-03-01T11:16:34;101550.94;;;9.22;100.00
18813;BME280;9534;51.140;6.296;2023-03-01T11:20:37;101554.03;;;8.03;100.00
18813;BME280;9534;51.140;6.296;2023-03-01T11:24:44;101549.59;;;7.94;100.00
18813;BME280;9534;51.140;6.296;2023-03-01T11:28:55;101534.94;;;7.79;100.00
18813;BME280;9534;51.140;6.296;2023-03-01T11:33:07;101535.13;;;8.71;100.00
18813;BME280;9534;51.140;6.296;2023-03-01T11:37:26;101532.53;;;8.32;100.00
18813;BME280;9534;51.140;6.296;2023-03-01T11:41:33;101533.78;;;7.81;100.00
18813;BME280;9534;51.140;6.296;2023-03-01T11:45:54;101538.28;;;9.29;100.00
18813;BME280;9534;51.140;6.296;2023-03-01T11:50:09;101533.56;;;8.31;100.00
18813;BME280;9534;51.140;6.296;2023-03-01T11:54:26;101523.88;;;8.66;100.00
18813;BME280;9534;51.140;6.296;2023-03-01T11:58:43;101527.84;;;9.02;100.00
18813;BME280;9534;51.140;6.296;2023-03-01T12:07:44;101525.38;;;9.60;100.00
18813;BME280;9534;51.140;6.296;2023-03-01T12:12:00;101524.69;;;8.45;100.00
18813;BME280;9534;51.140;6.296;2023-03-01T12:16:22;101516.00;;;8.79;100.00
18813;BME280;9534;51.140;6.296;2023-03-01T12:20:46;101511.91;;;8.75;98.47
18813;BME280;9534;51.140;6.296;2023-03-01T12:25:20;101516.28;;;8.92;100.00
18813;BME280;9534;51.140;6.296;2023-03-01T12:29:26;101501.31;;;8.26;100.00
18813;BME280;9534;51.140;6.296;2023-03-01T12:33:43;101486.59;;;9.20;99.34
18813;BME280;9534;51.140;6.296;2023-03-01T12:37:54;101485.97;;;9.77;98.41
18813;BME280;9534;51.140;6.296;2023-03-01T12:42:07;101471.50;;;8.41;100.00
18813;BME280;9534;51.140;6.296;2023-03-01T12:46:28;101471.50;;;8.41;99.68
18813;BME280;9534;51.140;6.296;2023-03-01T12:50:40;101466.06;;;9.46;98.93
18813;BME280;9534;51.140;6.296;2023-03-01T12:54:45;101449.44;;;9.56;97.26
18813;BME280;9534;51.140;6.296;2023-03-01T12:58:57;101461.81;;;9.66;87.51
18813;BME280;9534;51.140;6.296;2023-03-01T13:03:12;101461.84;;;9.21;91.85
18813;BME280;9534;51.140;6.296;2023-03-01T13:07:25;101459.00;;;7.76;95.03
18813;BME280;9534;51.140;6.296;2023-03-01T13:11:30;101458.47;;;8.89;91.81
18813;BME280;9534;51.140;6.296;2023-03-01T13:15:36;101448.28;;;9.50;87.09
18813;BME280;9534;51.140;6.296;2023-03-01T13:19:56;101447.75;;;8.79;87.11
18813;BME280;9534;51.140;6.296;2023-03-01T13:23:59;101427.34;;;9.80;84.98
18813;BME280;9534;51.140;6.296;2023-03-01T13:28:38;101426.84;;;9.62;83.30
18813;BME280;9534;51.140;6.296;2023-03-01T13:32:44;101431.97;;;9.93;81.56
18813;BME280;9534;51.140;6.296;2023-03-01T13:36:49;101423.28;;;9.76;80.93
18813;BME280;9534;51.140;6.296;2023-03-01T13:40:59;101414.88;;;9.03;82.84
18813;BME280;9534;51.140;6.296;2023-03-01T13:45:05;101410.38;;;9.84;80.68
18813;BME280;9534;51.140;6.296;2023-03-01T13:49:20;101403.91;;;9.48;82.08
18813;BME280;9534;51.140;6.296;2023-03-01T13:53:26;101412.97;;;9.63;79.14
18813;BME280;9534;51.140;6.296;2023-03-01T13:57:34;101406.66;;;10.14;79.85
18813;BME280;9534;51.140;6.296;2023-03-01T14:01:41;101394.22;;;10.26;76.11
18813;BME280;9534;51.140;6.296;2023-03-01T14:06:01;101398.53;;;10.35;74.00
18813;BME280;9534;51.140;6.296;2023-03-01T14:10:16;101402.47;;;10.47;67.40
18813;BME280;9534;51.140;6.296;2023-03-01T14:14:36;101395.91;;;10.27;73.76
18813;BME280;9534;51.140;6.296;2023-03-01T14:18:47;101378.34;;;10.07;71.07
18813;BME280;9534;51.140;6.296;2023-03-01T14:22:58;101378.34;;;10.36;74.62
18813;BME280;9534;51.140;6.296;2023-03-01T14:27:02;101363.84;;;10.92;72.65
18813;BME280;9534;51.140;6.296;2023-03-01T14:31:29;101360.16;;;10.64;69.74
18813;BME280;9534;51.140;6.296;2023-03-01T14:35:52;101362.16;;;9.54;72.43
18813;BME280;9534;51.140;6.296;2023-03-01T14:40:00;101359.97;;;10.30;71.32
18813;BME280;9534;51.140;6.296;2023-03-01T14:44:06;101351.88;;;10.78;71.18
18813;BME280;9534;51.140;6.296;2023-03-01T14:48:12;101355.91;;;9.97;72.81
18813;BME280;9534;51.140;6.296;2023-03-01T14:52:20;101343.34;;;10.67;75.71
18813;BME280;9534;51.140;6.296;2023-03-01T14:56:25;101348.53;;;9.83;74.00
18813;BME280;9534;51.140;6.296;2023-03-01T15:00:30;101332.69;;;10.93;73.97
18813;BME280;9534;51.140;6.296;2023-03-01T15:04:35;101333.72;;;10.35;74.00
18813;BME280;9534;51.140;6.296;2023-03-01T15:08:42;101320.47;;;10.18;75.21
18813;BME280;9534;51.140;6.296;2023-03-01T15:12:49;101319.06;;;9.79;74.56
18813;BME280;9534;51.140;6.296;2023-03-01T15:16:55;101318.75;;;9.88;78.24
18813;BME280;9534;51.140;6.296;2023-03-01T15:21:06;101315.88;;;11.44;68.71
18813;BME280;9534;51.140;6.296;2023-03-01T15:25:14;101321.28;;;10.04;77.95
18813;BME280;9534;51.140;6.296;2023-03-01T15:29:23;101321.56;;;10.23;72.48
18813;BME280;9534;51.140;6.296;2023-03-01T15:33:34;101306.38;;;11.19;70.07
18813;BME280;9534;51.140;6.296;2023-03-01T15:37:43;101297.59;;;10.61;71.49
18813;BME280;9534;51.140;6.296;2023-03-01T15:41:49;101303.19;;;10.53;72.03
18813;BME280;9534;51.140;6.296;2023-03-01T15:45:57;101306.59;;;9.62;76.35
18813;BME280;9534;51.140;6.296;2023-03-01T15:50:01;101304.84;;;9.17;80.55
18813;BME280;9534;51.140;6.296;2023-03-01T15:54:13;101293.69;;;9.41;79.23
18813;BME280;9534;51.140;6.296;2023-03-01T15:58:21;101289.53;;;10.03;77.35
18813;BME280;9534;51.140;6.296;2023-03-01T16:02:26;101286.53;;;9.40;83.41
18813;BME280;9534;51.140;6.296;2023-03-01T16:06:29;101281.53;;;10.37;79.91
18813;BME280;9534;51.140;6.296;2023-03-01T16:10:40;101290.72;;;10.00;80.20
18813;BME280;9534;51.140;6.296;2023-03-01T16:14:45;101296.69;;;9.75;83.10
18813;BME280;9534;51.140;6.296;2023-03-01T16:18:52;101280.28;;;10.04;81.13
18813;BME280;9534;51.140;6.296;2023-03-01T16:22:57;101295.28;;;9.50;81.79
18813;BME280;9534;51.140;6.296;2023-03-01T16:27:02;101291.34;;;9.38;81.77
18813;BME280;9534;51.140;6.296;2023-03-01T16:31:05;101285.06;;;8.78;92.39
18813;BME280;9534;51.140;6.296;2023-03-01T16:35:13;101274.78;;;8.44;93.97
18813;BME280;9534;51.140;6.296;2023-03-01T16:39:17;101284.31;;;8.84;93.08
18813;BME280;9534;51.140;6.296;2023-03-01T16:43:21;101286.94;;;8.25;99.71
18813;BME280;9534;51.140;6.296;2023-03-01T16:47:25;101280.38;;;8.12;100.00
18813;BME280;9534;51.140;6.296;2023-03-01T16:51:31;101282.75;;;7.30;100.00
18813;BME280;9534;51.140;6.296;2023-03-01T16:55:36;101275.69;;;6.89;100.00
18813;BME280;9534;51.140;6.296;2023-03-01T16:59:47;101275.84;;;6.88;100.00
18813;BME280;9534;51.140;6.296;2023-03-01T17:03:50;101277.22;;;6.44;100.00
18813;BME280;9534;51.140;6.296;2023-03-01T17:07:56;101282.06;;;6.01;100.00
18813;BME280;9534;51.140;6.296;2023-03-01T17:12:02;101285.44;;;5.61;100.00
18813;BME280;9534;51.140;6.296;2023-03-01T17:16:07;101281.13;;;5.51;100.00
18813;BME280;9534;51.140;6.296;2023-03-01T17:20:12;101280.34;;;5.33;100.00
18813;BME280;9534;51.140;6.296;2023-03-01T17:24:18;101279.16;;;5.02;100.00
18813;BME280;9534;51.140;6.296;2023-03-01T17:28:22;101283.13;;;4.90;100.00
18813;BME280;9534;51.140;6.296;2023-03-01T17:32:26;101294.69;;;4.92;100.00
18813;BME280;9534;51.140;6.296;2023-03-01T17:36:29;101290.81;;;4.77;100.00
18813;BME280;9534;51.140;6.296;2023-03-01T17:40:36;101291.16;;;4.74;100.00
18813;BME280;9534;51.140;6.296;2023-03-01T17:44:41;101288.59;;;4.55;100.00
18813;BME280;9534;51.140;6.296;2023-03-01T17:48:44;101289.69;;;4.62;100.00
18813;BME280;9534;51.140;6.296;2023-03-01T17:52:48;101285.50;;;4.50;100.00
18813;BME280;9534;51.140;6.296;2023-03-01T17:56:54;101297.97;;;4.43;100.00
18813;BME280;9534;51.140;6.296;2023-03-01T18:01:07;101305.50;;;4.32;100.00
18813;BME280;9534;51.140;6.296;2023-03-01T18:05:11;101299.53;;;4.28;100.00
18813;BME280;9534;51.140;6.296;2023-03-01T18:09:15;101306.63;;;4.12;100.00
18813;BME280;9534;51.140;6.296;2023-03-01T18:13:19;101307.16;;;3.98;100.00
18813;BME280;9534;51.140;6.296;2023-03-01T18:17:24;101299.59;;;3.74;100.00
18813;BME280;9534;51.140;6.296;2023-03-01T18:21:28;101301.00;;;3.78;100.00
18813;BME280;9534;51.140;6.296;2023-03-01T18:25:32;101302.19;;;3.67;100.00
18813;BME280;9534;51.140;6.296;2023-03-01T18:29:37;101304.19;;;3.65;100.00
18813;BME280;9534;51.140;6.296;2023-03-01T18:33:40;101295.66;;;3.69;100.00
18813;BME280;9534;51.140;6.296;2023-03-01T18:37:45;101288.88;;;3.56;100.00
18813;BME280;9534;51.140;6.296;2023-03-01T18:41:48;101289.16;;;3.53;100.00
18813;BME280;9534;51.140;6.296;2023-03-01T18:45:56;101285.16;;;3.30;100.00
18813;BME280;9534;51.140;6.296;2023-03-01T18:50:00;101281.16;;;3.34;100.00
18813;BME280;9534;51.140;6.296;2023-03-01T18:54:03;101281.88;;;3.36;100.00
18813;BME280;9534;51.140;6.296;2023-03-01T18:58:07;101272.63;;;3.29;100.00
18813;BME280;9534;51.140;6.296;2023-03-01T19:02:12;101259.13;;;3.29;100.00
18813;BME280;9534;51.140;6.296;2023-03-01T19:06:17;101262.69;;;3.20;100.00
18813;BME280;9534;51.140;6.296;2023-03-01T19:10:20;101266.00;;;3.14;100.00
18813;BME280;9534;51.140;6.296;2023-03-01T19:14:24;101269.44;;;3.06;100.00
18813;BME280;9534;51.140;6.296;2023-03-01T19:18:28;101273.16;;;2.96;100.00
18813;BME280;9534;51.140;6.296;2023-03-01T19:22:32;101270.91;;;2.82;100.00
18813;BME280;9534;51.140;6.296;2023-03-01T19:26:35;101269.03;;;2.92;100.00
18813;BME280;9534;51.140;6.296;2023-03-01T19:30:39;101271.34;;;2.87;100.00
18813;BME280;9534;51.140;6.296;2023-03-01T19:34:43;101265.97;;;2.77;100.00
18813;BME280;9534;51.140;6.296;2023-03-01T19:38:48;101265.97;;;2.68;100.00
18813;BME280;9534;51.140;6.296;2023-03-01T19:42:51;101272.94;;;2.70;100.00
18813;BME280;9534;51.140;6.296;2023-03-01T19:46:55;101260.97;;;2.73;100.00
18813;BME280;9534;51.140;6.296;2023-03-01T19:51:00;101262.41;;;2.67;100.00
18813;BME280;9534;51.140;6.296;2023-03-01T19:55:04;101256.84;;;2.69;100.00
18813;BME280;9534;51.140;6.296;2023-03-01T19:59:11;101255.03;;;2.69;100.00
18813;BME280;9534;51.140;6.296;2023-03-01T20:03:15;101254.44;;;2.66;100.00
18813;BME280;9534;51.140;6.296;2023-03-01T20:07:20;101254.69;;;2.82;100.00
18813;BME280;9534;51.140;6.296;2023-03-01T20:11:23;101255.56;;;2.82;100.00
18813;BME280;9534;51.140;6.296;2023-03-01T20:15:26;101254.41;;;2.94;100.00
18813;BME280;9534;51.140;6.296;2023-03-01T20:19:30;101260.81;;;2.84;100.00
18813;BME280;9534;51.140;6.296;2023-03-01T20:23:35;101259.28;;;2.72;100.00
18813;BME280;9534;51.140;6.296;2023-03-01T20:27:39;101257.16;;;2.66;100.00
18813;BME280;9534;51.140;6.296;2023-03-01T20:31:42;101250.66;;;2.59;100.00
18813;BME280;9534;51.140;6.296;2023-03-01T20:35:45;101265.44;;;2.55;100.00
18813;BME280;9534;51.140;6.296;2023-03-01T20:39:50;101267.84;;;2.58;100.00
18813;BME280;9534;51.140;6.296;2023-03-01T20:43:54;101264.88;;;2.42;100.00
18813;BME280;9534;51.140;6.296;2023-03-01T20:47:59;101256.75;;;2.51;100.00
18813;BME280;9534;51.140;6.296;2023-03-01T20:52:03;101260.75;;;2.38;100.00
18813;BME280;9534;51.140;6.296;2023-03-01T20:56:10;101249.78;;;2.40;100.00
18813;BME280;9534;51.140;6.296;2023-03-01T21:00:14;101263.75;;;2.35;100.00
18813;BME280;9534;51.140;6.296;2023-03-01T21:04:18;101266.72;;;2.32;100.00
18813;BME280;9534;51.140;6.296;2023-03-01T21:08:21;101256.22;;;2.29;100.00
18813;BME280;9534;51.140;6.296;2023-03-01T21:12:26;101257.78;;;2.22;100.00
18813;BME280;9534;51.140;6.296;2023-03-01T21:16:29;101257.22;;;2.28;100.00
18813;BME280;9534;51.140;6.296;2023-03-01T21:20:33;101255.91;;;2.13;100.00
18813;BME280;9534;51.140;6.296;2023-03-01T21:24:43;101259.63;;;2.12;100.00
18813;BME280;9534;51.140;6.296;2023-03-01T21:28:50;101267.13;;;1.99;100.00
18813;BME280;9534;51.140;6.296;2023-03-01T21:32:56;101264.88;;;2.04;100.00
18813;BME280;9534;51.140;6.296;2023-03-01T21:37:00;101264.16;;;2.02;100.00
18813;BME280;9534;51.140;6.296;2023-03-01T21:41:04;101258.91;;;2.10;100.00
18813;BME280;9534;51.140;6.296;2023-03-01T21:45:10;101254.22;;;2.03;100.00